Time;durP1;ratioP1;P1;durP2;ratioP2;P2;SDS_P1;SDS_P2;PMS_P1;PMS_P2;Temp;Humidity;BMP_temperature;BMP_pressure;BME280_temperature;BME280_humidity;BME280_pressure;Samples;Min_cycle;Max_cycle;Signal;HPM_P1;HPM_P2
2021/12/27 00:00:01;;;;;;;;;;;;;;;;;;5054067;28;20003;-67
2021/12/27 00:02:27;;;;;;;;;;;;;;;;;;5048245;28;19917;-68
2021/12/27 00:04:52;;;;;;;;;;;;;;;;;;5047241;28;19926;-69
2021/12/27 00:07:17;;;;;;;;;;;;;;;;;;5060902;28;19950;-68
2021/12/27 00:09:42;;;;;;;;;;;;;;;;;;5078827;28;20254;-68
2021/12/27 00:12:08;;;;;;;;;;;;;;;;;;5053329;28;20380;-68
2021/12/27 00:14:33;;;;;;;;;;;;;;;;;;5047119;28;19986;-68
2021/12/27 00:16:58;;;;;;;;;;;;;;;;;;5048739;28;20011;-69
2021/12/27 00:19:23;;;;;;;;;;;;;;;;;;5056188;28;19943;-68
2021/12/27 00:21:49;;;;;;;;;;;;;;;;;;5045050;28;20013;-68
2021/12/27 00:24:14;;;;;;;;;;;;;;;;;;5054165;28;19959;-68
2021/12/27 00:26:39;;;;;;;;;;;;;;;;;;5047195;28;20704;-67
2021/12/27 00:29:04;;;;;;;;;;;;;;;;;;5045445;28;20296;-67
2021/12/27 00:31:30;;;;;;;;;;;;;;;;;;5053971;28;19943;-67
2021/12/27 00:33:55;;;;;;;;;;;;;;;;;;5031445;28;19921;-67
2021/12/27 00:36:20;;;;;;;;;;;;;;;;;;5052548;28;19916;-68
2021/12/27 00:38:45;;;;;;;;;;;;;;;;;;5048106;28;20460;-69
2021/12/27 00:41:10;;;;;;;;;;;;;;;;;;5030780;28;19996;-69
2021/12/27 00:43:36;;;;;;;;;;;;;;;;;;5053139;28;19920;-68
2021/12/27 00:46:01;;;;;;;;;;;;;;;;;;5043714;28;19931;-68
2021/12/27 00:48:26;;;;;;;;;;;;;;;;;;5057345;28;19920;-68
2021/12/27 00:50:51;;;;;;;;;;;;;;;;;;5031375;28;19917;-68
2021/12/27 00:53:16;;;;;;;;;;;;;;;;;;5048174;28;19943;-68
2021/12/27 00:55:42;;;;;;;;;;;;;;;;;;5053952;28;19918;-68
2021/12/27 00:58:07;;;;;;;;;;;;;;;;;;5047945;28;19959;-68
2021/12/27 01:00:32;;;;;;;;;;;;;;;;;;5084616;28;19948;-68
2021/12/27 01:02:58;;;;;;;;;;;;;;;;;;5043915;28;20019;-68
2021/12/27 01:05:23;;;;;;;;;;;;;;;;;;5078660;28;20749;-68
2021/12/27 01:07:48;;;;;;;;;;;;;;;;;;5052509;28;20357;-69
2021/12/27 01:13:03;;;;;;;;;;;;;;;;;;5051597;28;20498;-68
2021/12/27 01:17:57;;;;;;;;;;;;;;;;;;5045906;28;19916;-68
2021/12/27 01:20:22;;;;;;;;;;;;;;;;;;5050792;28;19917;-69
2021/12/27 01:22:47;;;;;;;;;;;;;;;;;;5044961;28;19923;-68
2021/12/27 01:25:13;;;;;;;;;;;;;;;;;;5045573;28;20665;-68
2021/12/27 01:27:38;;;;;;;;;;;;;;;;;;5051840;28;19927;-69
2021/12/27 01:30:03;;;;;;;;;;;;;;;;;;5036531;28;19961;-70
2021/12/27 01:32:33;;;;;;;;;;;;;;;;;;5055465;28;20396;-69
2021/12/27 01:34:58;;;;;;;;;;;;;;;;;;5046252;28;19920;-69
2021/12/27 01:37:24;;;;;;;;;;;;;;;;;;5046564;28;19969;-69
2021/12/27 01:39:49;;;;;;;;;;;;;;;;;;5051200;28;19926;-68
2021/12/27 01:42:14;;;;;;;;;;;;;;;;;;5046206;28;19921;-68
2021/12/27 01:44:40;;;;;;;;;;;;;;;;;;5047552;28;19920;-68
2021/12/27 01:47:06;;;;;;;;;;;;;;;;;;5044413;28;20419;-68
2021/12/27 01:49:32;;;;;;;;;;;;;;;;;;5047272;28;19965;-68
2021/12/27 01:51:57;;;;;;;;;;;;;;;;;;5052445;28;20019;-69
2021/12/27 01:54:22;;;;;;;;;;;;;;;;;;5042545;28;19921;-69
2021/12/27 01:56:47;;;;;;;;;;;;;;;;;;5049578;28;20461;-68
2021/12/27 01:59:13;;;;;;;;;;;;;;;;;;5046600;28;19913;-69
2021/12/27 02:01:38;;;;;;;;;;;;;;;;;;5075850;28;19917;-68
2021/12/27 02:04:03;;;;;;;;;;;;;;;;;;5049375;28;19921;-68
2021/12/27 02:06:28;;;;;;;;;;;;;;;;;;5051959;28;19923;-69
2021/12/27 02:08:54;;;;;;;;;;;;;;;;;;5050063;28;19917;-68
2021/12/27 02:11:20;;;;;;;;;;;;;;;;;;5043190;28;19920;-68
2021/12/27 02:13:46;;;;;;;;;;;;;;;;;;5079866;27;20333;-68
2021/12/27 02:16:11;;;;;;;;;;;;;;;;;;5053838;28;19916;-69
2021/12/27 02:18:37;;;;;;;;;;;;;;;;;;5050682;28;20027;-67
2021/12/27 02:21:02;;;;;;;;;;;;;;;;;;5054343;28;19909;-68
2021/12/27 02:23:27;;;;;;;;;;;;;;;;;;5047960;28;19924;-67
2021/12/27 02:25:53;;;;;;;;;;;;;;;;;;5051213;28;20150;-68
2021/12/27 02:28:18;;;;;;;;;;;;;;;;;;5088382;28;19916;-68
2021/12/27 02:30:43;;;;;;;;;;;;;;;;;;5081707;28;19924;-69
2021/12/27 02:33:08;;;;;;;;;;;;;;;;;;5056395;28;19920;-67
2021/12/27 02:35:34;;;;;;;;;;;;;;;;;;5050401;28;19928;-70
2021/12/27 02:37:59;;;;;;;;;;;;;;;;;;5050198;28;19955;-69
2021/12/27 02:40:24;;;;;;;;;;;;;;;;;;5057397;28;19916;-68
2021/12/27 02:42:49;;;;;;;;;;;;;;;;;;5049683;28;19916;-69
2021/12/27 02:45:14;;;;;;;;;;;;;;;;;;5054761;28;19916;-68
2021/12/27 02:47:40;;;;;;;;;;;;;;;;;;5050639;28;19960;-69
2021/12/27 02:50:05;;;;;;;;;;;;;;;;;;5050768;28;19955;-68
2021/12/27 02:52:30;;;;;;;;;;;;;;;;;;5056081;28;19920;-69
2021/12/27 02:54:55;;;;;;;;;;;;;;;;;;5080196;28;19927;-68
2021/12/27 02:57:20;;;;;;;;;;;;;;;;;;5056024;28;20011;-69
2021/12/27 02:59:46;;;;;;;;;;;;;;;;;;5049392;28;19916;-69
2021/12/27 03:02:11;;;;;;;;;;;;;;;;;;5066194;28;19919;-68
2021/12/27 03:04:36;;;;;;;;;;;;;;;;;;5044312;28;19916;-68
2021/12/27 03:07:01;;;;;;;;;;;;;;;;;;5050262;28;19923;-67
2021/12/27 03:09:28;;;;;;;;;;;;;;;;;;5053588;28;19916;-68
2021/12/27 03:11:53;;;;;;;;;;;;;;;;;;5036464;28;19967;-68
2021/12/27 03:14:20;;;;;;;;;;;;;;;;;;5049062;28;20287;-69
2021/12/27 03:16:45;;;;;;;;;;;;;;;;;;5056635;28;20038;-68
2021/12/27 03:19:12;;;;;;;;;;;;;;;;;;5047752;28;19958;-67
2021/12/27 03:21:37;;;;;;;;;;;;;;;;;;5087108;28;20367;-67
2021/12/27 03:24:02;;;;;;;;;;;;;;;;;;5045925;28;20051;-69
2021/12/27 03:26:28;;;;;;;;;;;;;;;;;;5049303;28;19917;-68
2021/12/27 03:28:53;;;;;;;;;;;;;;;;;;5053753;28;20031;-67
2021/12/27 03:31:19;;;;;;;;;;;;;;;;;;5079026;28;19963;-67
2021/12/27 03:33:44;;;;;;;;;;;;;;;;;;5086353;28;19917;-69
2021/12/27 03:36:10;;;;;;;;;;;;;;;;;;5051050;28;19917;-67
2021/12/27 03:38:35;;;;;;;;;;;;;;;;;;5047561;28;20217;-69
2021/12/27 03:41:00;;;;;;;;;;;;;;;;;;5056225;28;20011;-68
2021/12/27 03:43:25;;;;;;;;;;;;;;;;;;5051985;28;19921;-67
2021/12/27 03:45:50;;;;;;;;;;;;;;;;;;5053572;28;19986;-68
2021/12/27 03:48:16;;;;;;;;;;;;;;;;;;5079444;28;20016;-67
2021/12/27 03:50:41;;;;;;;;;;;;;;;;;;5052410;28;19916;-69
2021/12/27 03:53:07;;;;;;;;;;;;;;;;;;5053139;28;19931;-67
2021/12/27 03:55:32;;;;;;;;;;;;;;;;;;5043589;28;19942;-68
2021/12/27 03:58:07;;;;;;;;;;;;;;;;;;5057329;28;19923;-68
2021/12/27 04:00:46;;;;;;;;;;;;;;;;;;5049250;28;19913;-67
2021/12/27 04:03:11;;;;;;;;;;;;;;;;;;5041962;28;20003;-69
2021/12/27 04:05:36;;;;;;;;;;;;;;;;;;5053554;28;20605;-70
2021/12/27 04:08:09;;;;;;;;;;;;;;;;;;5047344;28;20247;-70
2021/12/27 04:10:34;;;;;;;;;;;;;;;;;;5063483;28;19923;-67
2021/12/27 04:12:59;;;;;;;;;;;;;;;;;;5052013;28;19920;-69
2021/12/27 04:15:24;;;;;;;;;;;;;;;;;;5048291;28;20313;-67
2021/12/27 04:17:51;;;;;;;;;;;;;;;;;;5053929;28;20027;-67
2021/12/27 04:20:16;;;;;;;;;;;;;;;;;;5081111;28;19994;-68
2021/12/27 04:22:42;;;;;;;;;;;;;;;;;;5047096;28;19916;-68
2021/12/27 04:25:07;;;;;;;;;;;;;;;;;;5056025;28;19956;-69
2021/12/27 04:27:32;;;;;;;;;;;;;;;;;;5047810;28;20012;-69
2021/12/27 04:29:57;;;;;;;;;;;;;;;;;;5053578;28;20429;-69
2021/12/27 04:32:22;;;;;;;;;;;;;;;;;;5048821;28;20350;-68
2021/12/27 04:34:48;;;;;;;;;;;;;;;;;;5050024;28;20101;-68
2021/12/27 04:37:13;;;;;;;;;;;;;;;;;;5053604;28;19919;-67
2021/12/27 04:39:38;;;;;;;;;;;;;;;;;;5052029;28;19917;-69
2021/12/27 04:42:04;;;;;;;;;;;;;;;;;;5052795;28;19916;-67
2021/12/27 04:44:29;;;;;;;;;;;;;;;;;;5049022;28;19917;-67
2021/12/27 04:46:54;;;;;;;;;;;;;;;;;;5048058;28;19951;-67
2021/12/27 04:49:20;;;;;;;;;;;;;;;;;;5051960;28;19922;-68
2021/12/27 04:51:45;;;;;;;;;;;;;;;;;;5044818;28;20052;-67
2021/12/27 04:54:10;;;;;;;;;;;;;;;;;;5052588;28;19920;-71
2021/12/27 04:56:38;;;;;;;;;;;;;;;;;;5043281;28;19921;-68
2021/12/27 04:59:03;;;;;;;;;;;;;;;;;;5048810;28;20364;-67
2021/12/27 05:01:28;;;;;;;;;;;;;;;;;;5054188;28;20361;-68
2021/12/27 05:03:54;;;;;;;;;;;;;;;;;;5052816;28;19923;-68
2021/12/27 05:06:19;;;;;;;;;;;;;;;;;;5052070;28;19916;-69
2021/12/27 05:08:44;;;;;;;;;;;;;;;;;;5033932;28;19920;-68
2021/12/27 05:11:10;;;;;;;;;;;;;;;;;;5043468;28;20191;-68
2021/12/27 05:13:35;;;;;;;;;;;;;;;;;;5053184;28;19921;-68
2021/12/27 05:16:00;;;;;;;;;;;;;;;;;;5047369;28;20020;-68
2021/12/27 05:18:25;;;;;;;;;;;;;;;;;;5053679;28;19917;-67
2021/12/27 05:20:50;;;;;;;;;;;;;;;;;;5043826;28;19917;-68
2021/12/27 05:23:16;;;;;;;;;;;;;;;;;;5047966;28;19920;-67
2021/12/27 05:25:41;;;;;;;;;;;;;;;;;;5053121;28;19916;-71
2021/12/27 05:28:06;;;;;;;;;;;;;;;;;;5047111;28;19916;-67
2021/12/27 05:30:31;;;;;;;;;;;;;;;;;;5057220;28;19920;-68
2021/12/27 05:32:56;;;;;;;;;;;;;;;;;;5047260;28;19929;-67
2021/12/27 05:35:22;;;;;;;;;;;;;;;;;;5045713;28;20473;-69
2021/12/27 05:37:47;;;;;;;;;;;;;;;;;;5060429;28;19916;-68
2021/12/27 05:40:12;;;;;;;;;;;;;;;;;;5048008;28;19916;-68
2021/12/27 05:42:37;;;;;;;;;;;;;;;;;;5053488;28;19917;-69
2021/12/27 05:45:02;;;;;;;;;;;;;;;;;;5047998;28;19920;-69
2021/12/27 05:47:28;;;;;;;;;;;;;;;;;;5048955;28;20377;-70
2021/12/27 05:49:53;;;;;;;;;;;;;;;;;;5058264;28;19917;-69
2021/12/27 05:52:18;;;;;;;;;;;;;;;;;;5044553;28;20486;-67
2021/12/27 05:54:43;;;;;;;;;;;;;;;;;;5062661;28;19917;-69
2021/12/27 05:57:09;;;;;;;;;;;;;;;;;;5050594;28;19912;-67
2021/12/27 05:59:34;;;;;;;;;;;;;;;;;;5051460;28;20347;-70
2021/12/27 06:01:59;;;;;;;;;;;;;;;;;;5056960;28;20012;-68
2021/12/27 06:04:24;;;;;;;;;;;;;;;;;;5048851;28;19927;-68
2021/12/27 06:06:49;;;;;;;;;;;;;;;;;;5054209;28;19917;-68
2021/12/27 06:09:15;;;;;;;;;;;;;;;;;;5053537;28;19921;-68
2021/12/27 06:11:40;;;;;;;;;;;;;;;;;;5048745;28;20499;-68
2021/12/27 06:14:05;;;;;;;;;;;;;;;;;;5052863;28;19925;-67
2021/12/27 06:16:30;;;;;;;;;;;;;;;;;;5050683;28;20103;-70
2021/12/27 06:18:55;;;;;;;;;;;;;;;;;;5045522;28;19916;-68
2021/12/27 06:21:21;;;;;;;;;;;;;;;;;;5046838;28;19917;-68
2021/12/27 06:23:46;;;;;;;;;;;;;;;;;;5052337;28;20908;-67
2021/12/27 06:26:11;;;;;;;;;;;;;;;;;;5052831;28;20263;-68
2021/12/27 06:28:36;;;;;;;;;;;;;;;;;;5051991;28;20339;-68
2021/12/27 06:31:01;;;;;;;;;;;;;;;;;;5055102;28;19917;-68
2021/12/27 06:33:27;;;;;;;;;;;;;;;;;;5066475;28;20341;-67
2021/12/27 06:35:52;;;;;;;;;;;;;;;;;;5049957;28;19921;-68
2021/12/27 06:38:17;;;;;;;;;;;;;;;;;;5055998;28;19917;-68
2021/12/27 06:40:42;;;;;;;;;;;;;;;;;;5056729;28;20003;-68
2021/12/27 06:43:08;;;;;;;;;;;;;;;;;;5056741;28;20436;-67
2021/12/27 06:45:33;;;;;;;;;;;;;;;;;;5049938;28;19942;-68
2021/12/27 06:47:58;;;;;;;;;;;;;;;;;;5049029;28;19983;-68
2021/12/27 06:50:23;;;;;;;;;;;;;;;;;;5054949;28;19925;-67
2021/12/27 06:52:48;;;;;;;;;;;;;;;;;;5049833;28;20062;-66
2021/12/27 06:55:14;;;;;;;;;;;;;;;;;;5055199;28;19913;-66
2021/12/27 06:57:39;;;;;;;;;;;;;;;;;;5051281;28;19923;-67
2021/12/27 07:00:04;;;;;;;;;;;;;;;;;;5048595;28;19940;-68
2021/12/27 07:02:30;;;;;;;;;;;;;;;;;;5056062;28;19916;-67
2021/12/27 07:04:55;;;;;;;;;;;;;;;;;;5047739;28;20349;-68
2021/12/27 07:07:20;;;;;;;;;;;;;;;;;;5056841;28;19969;-68
2021/12/27 07:09:45;;;;;;;;;;;;;;;;;;5082113;27;20228;-67
2021/12/27 07:12:10;;;;;;;;;;;;;;;;;;5051227;28;19932;-67
2021/12/27 07:14:36;;;;;;;;;;;;;;;;;;5056018;28;19921;-67
2021/12/27 07:17:01;;;;;;;;;;;;;;;;;;5050191;28;19925;-67
2021/12/27 07:19:27;;;;;;;;;;;;;;;;;;5055026;28;19923;-68
2021/12/27 07:21:52;;;;;;;;;;;;;;;;;;5038836;28;19920;-67
2021/12/27 07:24:17;;;;;;;;;;;;;;;;;;5079666;28;20477;-67
2021/12/27 07:26:43;;;;;;;;;;;;;;;;;;5055448;28;20364;-67
2021/12/27 07:29:08;;;;;;;;;;;;;;;;;;5079053;28;20344;-70
2021/12/27 07:31:33;;;;;;;;;;;;;;;;;;5057207;28;20389;-69
2021/12/27 07:34:00;;;;;;;;;;;;;;;;;;5039348;28;20768;-69
2021/12/27 07:36:25;;;;;;;;;;;;;;;;;;5070764;28;20015;-67
2021/12/27 07:38:50;;;;;;;;;;;;;;;;;;5055029;28;20007;-67
2021/12/27 07:41:15;;;;;;;;;;;;;;;;;;5047222;28;19956;-68
2021/12/27 07:43:41;;;;;;;;;;;;;;;;;;5053927;28;19916;-67
2021/12/27 07:46:06;;;;;;;;;;;;;;;;;;5048264;28;19916;-68
2021/12/27 07:48:31;;;;;;;;;;;;;;;;;;5052287;28;20176;-68
2021/12/27 07:50:56;;;;;;;;;;;;;;;;;;5054408;28;20384;-67
2021/12/27 07:53:21;;;;;;;;;;;;;;;;;;5048509;28;20440;-67
2021/12/27 07:55:47;;;;;;;;;;;;;;;;;;5055199;28;20456;-67
2021/12/27 07:58:12;;;;;;;;;;;;;;;;;;5047127;28;19923;-69
2021/12/27 08:00:37;;;;;;;;;;;;;;;;;;5047697;28;20356;-68
2021/12/27 08:03:02;;;;;;;;;;;;;;;;;;5053122;28;19917;-68
2021/12/27 08:05:28;;;;;;;;;;;;;;;;;;5045707;28;19929;-69
2021/12/27 08:07:53;;;;;;;;;;;;;;;;;;5084504;28;20016;-68
2021/12/27 08:10:18;;;;;;;;;;;;;;;;;;5047388;28;20455;-70
2021/12/27 08:12:43;;;;;;;;;;;;;;;;;;5054429;28;20779;-68
2021/12/27 08:15:08;;;;;;;;;;;;;;;;;;5054451;28;19917;-69
2021/12/27 08:17:34;;;;;;;;;;;;;;;;;;5076660;28;20067;-68
2021/12/27 08:19:59;;;;;;;;;;;;;;;;;;5051339;28;19917;-68
2021/12/27 08:22:24;;;;;;;;;;;;;;;;;;5075981;28;20370;-68
2021/12/27 08:24:49;;;;;;;;;;;;;;;;;;5045668;28;20581;-68
2021/12/27 08:27:14;;;;;;;;;;;;;;;;;;5052848;28;20321;-68
2021/12/27 08:29:40;;;;;;;;;;;;;;;;;;5078572;27;19916;-69
2021/12/27 08:32:05;;;;;;;;;;;;;;;;;;5051365;28;19960;-68
2021/12/27 08:34:31;;;;;;;;;;;;;;;;;;5048089;28;20221;-70
2021/12/27 08:36:56;;;;;;;;;;;;;;;;;;5048192;28;20014;-68
2021/12/27 08:39:22;;;;;;;;;;;;;;;;;;5051971;28;20456;-68
2021/12/27 08:41:47;;;;;;;;;;;;;;;;;;5049554;28;20412;-69
2021/12/27 08:44:12;;;;;;;;;;;;;;;;;;5048525;28;20389;-68
2021/12/27 08:46:37;;;;;;;;;;;;;;;;;;5046667;28;20301;-69
2021/12/27 08:49:03;;;;;;;;;;;;;;;;;;5049457;28;19916;-68
2021/12/27 08:51:28;;;;;;;;;;;;;;;;;;5054715;28;20059;-68
2021/12/27 08:53:53;;;;;;;;;;;;;;;;;;5079687;28;19928;-69
2021/12/27 08:56:19;;;;;;;;;;;;;;;;;;5050244;28;20270;-68
2021/12/27 08:58:44;;;;;;;;;;;;;;;;;;5048074;28;20335;-67
2021/12/27 09:01:09;;;;;;;;;;;;;;;;;;5054341;28;19916;-68
2021/12/27 09:03:34;;;;;;;;;;;;;;;;;;5052080;28;19939;-68
2021/12/27 09:06:00;;;;;;;;;;;;;;;;;;5050644;28;19921;-69
2021/12/27 09:08:25;;;;;;;;;;;;;;;;;;5048999;28;19924;-69
2021/12/27 09:10:50;;;;;;;;;;;;;;;;;;5052783;28;19917;-69
2021/12/27 09:13:15;;;;;;;;;;;;;;;;;;5052556;28;19925;-67
2021/12/27 09:15:40;;;;;;;;;;;;;;;;;;5051081;28;19928;-68
2021/12/27 09:18:06;;;;;;;;;;;;;;;;;;5049718;28;20003;-70
2021/12/27 09:20:31;;;;;;;;;;;;;;;;;;5049604;28;20414;-71
2021/12/27 09:22:56;;;;;;;;;;;;;;;;;;5054435;28;19935;-70
2021/12/27 09:25:22;;;;;;;;;;;;;;;;;;5049420;28;20379;-69
2021/12/27 09:27:47;;;;;;;;;;;;;;;;;;5052275;28;19916;-68
2021/12/27 09:30:12;;;;;;;;;;;;;;;;;;5053854;28;19948;-71
2021/12/27 09:32:37;;;;;;;;;;;;;;;;;;5048912;28;19927;-68
2021/12/27 09:35:02;;;;;;;;;;;;;;;;;;5052245;28;19951;-69
2021/12/27 09:37:28;;;;;;;;;;;;;;;;;;5083901;28;20067;-69
2021/12/27 09:39:53;;;;;;;;;;;;;;;;;;5050078;28;19960;-69
2021/12/27 09:42:19;;;;;;;;;;;;;;;;;;5050450;28;19916;-69
2021/12/27 09:44:44;;;;;;;;;;;;;;;;;;5051061;28;20004;-69
2021/12/27 09:47:09;;;;;;;;;;;;;;;;;;5050399;28;20466;-68
2021/12/27 09:49:34;;;;;;;;;;;;;;;;;;5081744;28;19956;-68
2021/12/27 09:52:00;;;;;;;;;;;;;;;;;;5051003;28;19920;-68
2021/12/27 09:54:25;;;;;;;;;;;;;;;;;;5082639;28;19920;-68
2021/12/27 09:56:50;;;;;;;;;;;;;;;;;;5050395;28;20012;-69
2021/12/27 09:59:16;;;;;;;;;;;;;;;;;;5049165;28;20290;-68
2021/12/27 10:01:41;;;;;;;;;;;;;;;;;;5055633;28;19919;-69
2021/12/27 10:04:06;;;;;;;;;;;;;;;;;;5081114;28;19924;-69
2021/12/27 10:06:31;;;;;;;;;;;;;;;;;;5051837;28;20277;-68
2021/12/27 10:08:57;;;;;;;;;;;;;;;;;;5053752;28;19923;-68
2021/12/27 10:11:22;;;;;;;;;;;;;;;;;;5050172;28;20011;-70
2021/12/27 10:13:47;;;;;;;;;;;;;;;;;;5049622;28;20305;-67
2021/12/27 10:16:12;;;;;;;;;;;;;;;;;;5081436;28;19916;-68
2021/12/27 10:18:38;;;;;;;;;;;;;;;;;;5049948;28;19917;-67
2021/12/27 10:21:03;;;;;;;;;;;;;;;;;;5050265;28;19913;-70
2021/12/27 10:23:28;;;;;;;;;;;;;;;;;;5053458;28;20039;-69
2021/12/27 10:25:54;;;;;;;;;;;;;;;;;;5048326;28;20011;-68
2021/12/27 10:28:19;;;;;;;;;;;;;;;;;;5050822;28;19954;-68
2021/12/27 10:30:45;;;;;;;;;;;;;;;;;;5047722;28;20285;-67
2021/12/27 10:33:11;;;;;;;;;;;;;;;;;;5043872;28;19920;-69
2021/12/27 10:35:36;;;;;;;;;;;;;;;;;;5054589;28;19925;-68
2021/12/27 10:38:01;;;;;;;;;;;;;;;;;;5053155;28;20324;-67
2021/12/27 10:40:26;;;;;;;;;;;;;;;;;;5053238;28;20175;-71
2021/12/27 10:42:53;;;;;;;;;;;;;;;;;;5085754;28;19940;-71
2021/12/27 10:45:19;;;;;;;;;;;;;;;;;;5054643;28;19919;-67
2021/12/27 10:47:44;;;;;;;;;;;;;;;;;;5053699;28;19921;-70
2021/12/27 10:50:10;;;;;;;;;;;;;;;;;;5053355;28;19963;-69
2021/12/27 10:52:35;;;;;;;;;;;;;;;;;;5052248;28;20357;-67
2021/12/27 10:55:01;;;;;;;;;;;;;;;;;;5054324;28;20339;-69
2021/12/27 10:57:26;;;;;;;;;;;;;;;;;;5068698;28;19956;-67
2021/12/27 10:59:53;;;;;;;;;;;;;;;;;;5055766;28;20009;-67
2021/12/27 11:02:18;;;;;;;;;;;;;;;;;;5081188;27;20262;-66
2021/12/27 11:04:43;;;;;;;;;;;;;;;;;;5053772;28;19959;-69
2021/12/27 11:07:08;;;;;;;;;;;;;;;;;;5053159;28;20098;-69
2021/12/27 11:09:33;;;;;;;;;;;;;;;;;;5054950;28;19951;-69
2021/12/27 11:11:59;;;;;;;;;;;;;;;;;;5057099;28;19961;-67
2021/12/27 11:14:24;;;;;;;;;;;;;;;;;;5056130;28;20089;-67
2021/12/27 11:16:49;;;;;;;;;;;;;;;;;;5057118;28;19917;-68
2021/12/27 11:19:14;;;;;;;;;;;;;;;;;;5055618;28;19916;-67
2021/12/27 11:21:41;;;;;;;;;;;;;;;;;;5059184;28;20189;-67
2021/12/27 11:24:06;;;;;;;;;;;;;;;;;;5087665;28;20514;-67
2021/12/27 11:26:31;;;;;;;;;;;;;;;;;;5054342;28;19924;-69
2021/12/27 11:28:57;;;;;;;;;;;;;;;;;;5085248;27;19916;-67
2021/12/27 11:31:22;;;;;;;;;;;;;;;;;;5059503;28;19962;-67
2021/12/27 11:33:47;;;;;;;;;;;;;;;;;;5055558;28;21464;-67
2021/12/27 11:36:12;;;;;;;;;;;;;;;;;;5054611;28;19994;-67
2021/12/27 11:38:38;;;;;;;;;;;;;;;;;;5053772;28;19946;-69
2021/12/27 11:41:03;;;;;;;;;;;;;;;;;;5060453;28;19977;-68
2021/12/27 11:43:28;;;;;;;;;;;;;;;;;;5086573;28;19916;-67
2021/12/27 11:45:53;;;;;;;;;;;;;;;;;;5051426;28;19924;-67
2021/12/27 11:48:19;;;;;;;;;;;;;;;;;;5052280;28;20467;-66
2021/12/27 11:50:44;;;;;;;;;;;;;;;;;;5051760;28;19916;-71
2021/12/27 11:53:09;;;;;;;;;;;;;;;;;;5045103;28;19971;-69
2021/12/27 11:55:34;;;;;;;;;;;;;;;;;;5043221;28;20425;-69
2021/12/27 11:57:59;;;;;;;;;;;;;;;;;;5050223;28;20015;-67
2021/12/27 12:00:26;;;;;;;;;;;;;;;;;;5045693;28;19916;-68
2021/12/27 12:02:51;;;;;;;;;;;;;;;;;;5072394;28;19964;-68
2021/12/27 12:05:16;;;;;;;;;;;;;;;;;;5045816;28;20015;-68
2021/12/27 12:07:42;;;;;;;;;;;;;;;;;;5078937;28;19916;-70
2021/12/27 12:10:07;;;;;;;;;;;;;;;;;;5050012;28;19917;-67
2021/12/27 12:12:35;;;;;;;;;;;;;;;;;;5019628;28;20399;-71
2021/12/27 12:15:00;;;;;;;;;;;;;;;;;;4998056;28;19929;-68
2021/12/27 12:17:26;;;;;;;;;;;;;;;;;;4993255;28;19935;-69
2021/12/27 12:19:51;;;;;;;;;;;;;;;;;;4994120;28;20415;-67
2021/12/27 12:22:16;;;;;;;;;;;;;;;;;;4998393;28;20378;-70
2021/12/27 12:24:41;;;;;;;;;;;;;;;;;;5008169;28;20555;-68
2021/12/27 12:27:06;;;;;;;;;;;;;;;;;;5011172;28;20424;-69
2021/12/27 12:29:32;;;;;;;;;;;;;;;;;;5005780;28;20336;-67
2021/12/27 12:31:57;;;;;;;;;;;;;;;;;;5009779;28;19932;-68
2021/12/27 12:34:22;;;;;;;;;;;;;;;;;;5009279;28;19944;-68
2021/12/27 12:36:47;;;;;;;;;;;;;;;;;;5005491;28;19924;-70
2021/12/27 12:39:12;;;;;;;;;;;;;;;;;;5012160;28;19917;-67
2021/12/27 12:41:38;;;;;;;;;;;;;;;;;;5002677;28;19917;-67
2021/12/27 12:44:03;;;;;;;;;;;;;;;;;;5003475;28;19917;-68
2021/12/27 12:46:29;;;;;;;;;;;;;;;;;;5016698;28;19956;-69
2021/12/27 12:48:55;;;;;;;;;;;;;;;;;;5010882;28;19967;-68
2021/12/27 12:51:20;;;;;;;;;;;;;;;;;;5013741;28;20004;-69
2021/12/27 12:53:45;;;;;;;;;;;;;;;;;;5013256;28;19917;-68
2021/12/27 12:56:10;;;;;;;;;;;;;;;;;;5007237;28;19918;-69
2021/12/27 12:58:36;;;;;;;;;;;;;;;;;;5011806;28;19927;-68
2021/12/27 13:01:01;;;;;;;;;;;;;;;;;;4994247;28;19940;-68
2021/12/27 13:03:26;;;;;;;;;;;;;;;;;;5009571;28;19931;-67
2021/12/27 13:05:51;;;;;;;;;;;;;;;;;;5006847;28;20461;-68
2021/12/27 13:08:16;;;;;;;;;;;;;;;;;;5008881;28;20078;-69
2021/12/27 13:10:42;;;;;;;;;;;;;;;;;;5010503;28;19925;-68
2021/12/27 13:13:07;;;;;;;;;;;;;;;;;;5005586;28;19936;-67
2021/12/27 13:15:32;;;;;;;;;;;;;;;;;;5011513;28;20747;-68
2021/12/27 13:17:57;;;;;;;;;;;;;;;;;;5005538;28;19986;-68
2021/12/27 13:20:23;;;;;;;;;;;;;;;;;;5006362;28;20491;-68
2021/12/27 13:22:48;;;;;;;;;;;;;;;;;;5010638;28;20004;-67
2021/12/27 13:25:13;;;;;;;;;;;;;;;;;;5007794;28;19949;-67
2021/12/27 13:27:39;;;;;;;;;;;;;;;;;;5014396;28;20336;-66
2021/12/27 13:30:04;;;;;;;;;;;;;;;;;;5006207;28;19918;-67
2021/12/27 13:32:29;;;;;;;;;;;;;;;;;;5004861;28;20495;-67
2021/12/27 13:34:54;;;;;;;;;;;;;;;;;;5015207;28;19968;-67
2021/12/27 13:37:19;;;;;;;;;;;;;;;;;;5005371;28;20004;-68
2021/12/27 13:39:45;;;;;;;;;;;;;;;;;;5015747;28;20042;-66
2021/12/27 13:42:11;;;;;;;;;;;;;;;;;;5005653;28;19924;-67
2021/12/27 13:44:36;;;;;;;;;;;;;;;;;;5007579;28;19929;-67
2021/12/27 13:47:01;;;;;;;;;;;;;;;;;;5013546;28;19927;-67
2021/12/27 13:49:27;;;;;;;;;;;;;;;;;;5009671;28;20416;-66
2021/12/27 13:51:52;;;;;;;;;;;;;;;;;;5010816;28;19932;-69
2021/12/27 13:54:17;;;;;;;;;;;;;;;;;;5006137;28;19920;-66
2021/12/27 13:56:43;;;;;;;;;;;;;;;;;;5004993;28;20231;-65
2021/12/27 13:59:09;;;;;;;;;;;;;;;;;;5018912;28;20325;-66
2021/12/27 14:01:34;;;;;;;;;;;;;;;;;;5006185;28;20363;-69
2021/12/27 14:04:00;;;;;;;;;;;;;;;;;;5014592;28;19918;-66
2021/12/27 14:06:25;;;;;;;;;;;;;;;;;;5007239;28;20276;-67
2021/12/27 14:08:50;;;;;;;;;;;;;;;;;;5010941;28;20160;-67
2021/12/27 14:11:16;;;;;;;;;;;;;;;;;;5017116;28;19960;-68
2021/12/27 14:13:42;;;;;;;;;;;;;;;;;;5006222;28;19940;-68
2021/12/27 14:16:07;;;;;;;;;;;;;;;;;;5015443;28;20290;-67
2021/12/27 14:18:32;;;;;;;;;;;;;;;;;;5016899;28;20004;-68
2021/12/27 14:20:57;;;;;;;;;;;;;;;;;;5009444;28;19914;-69
2021/12/27 14:23:23;;;;;;;;;;;;;;;;;;5022521;28;20000;-67
2021/12/27 14:25:48;;;;;;;;;;;;;;;;;;5009241;28;19925;-66
2021/12/27 14:28:13;;;;;;;;;;;;;;;;;;5016201;28;20401;-66
2021/12/27 14:30:38;;;;;;;;;;;;;;;;;;5012064;28;20278;-67
2021/12/27 14:33:04;;;;;;;;;;;;;;;;;;5008714;28;20106;-67
2021/12/27 14:35:29;;;;;;;;;;;;;;;;;;5015271;28;19946;-67
2021/12/27 14:37:54;;;;;;;;;;;;;;;;;;5010673;28;19970;-66
2021/12/27 14:40:23;;;;;;;;;;;;;;;;;;5023369;28;19913;-67
2021/12/27 14:42:49;;;;;;;;;;;;;;;;;;5014765;28;20028;-67
2021/12/27 14:45:14;;;;;;;;;;;;;;;;;;5010131;28;20538;-66
2021/12/27 14:47:39;;;;;;;;;;;;;;;;;;5020958;28;19921;-68
2021/12/27 14:50:04;;;;;;;;;;;;;;;;;;5016522;28;19917;-66
2021/12/27 14:52:30;;;;;;;;;;;;;;;;;;5016225;28;20061;-68
2021/12/27 14:54:55;;;;;;;;;;;;;;;;;;5015151;28;19964;-68
2021/12/27 14:57:20;;;;;;;;;;;;;;;;;;5009288;28;19964;-66
2021/12/27 14:59:45;;;;;;;;;;;;;;;;;;5013699;28;20016;-66
2021/12/27 15:02:11;;;;;;;;;;;;;;;;;;5007230;28;19917;-68
2021/12/27 15:04:36;;;;;;;;;;;;;;;;;;5016870;28;20427;-67
2021/12/27 15:07:01;;;;;;;;;;;;;;;;;;5008261;28;19917;-66
2021/12/27 15:09:27;;;;;;;;;;;;;;;;;;5010361;28;20401;-66
2021/12/27 15:11:52;;;;;;;;;;;;;;;;;;5019756;28;19929;-66
2021/12/27 15:14:17;;;;;;;;;;;;;;;;;;5014355;28;20400;-66
2021/12/27 15:16:42;;;;;;;;;;;;;;;;;;5016492;28;19917;-67
2021/12/27 15:19:09;;;;;;;;;;;;;;;;;;5014540;28;19964;-67
2021/12/27 15:21:34;;;;;;;;;;;;;;;;;;5009616;28;20030;-67
2021/12/27 15:23:59;;;;;;;;;;;;;;;;;;5017885;28;19925;-67
2021/12/27 15:26:25;;;;;;;;;;;;;;;;;;5008087;28;20351;-66
2021/12/27 15:28:50;;;;;;;;;;;;;;;;;;5019093;28;19967;-69
2021/12/27 15:31:15;;;;;;;;;;;;;;;;;;5017656;28;19917;-66
2021/12/27 15:33:40;;;;;;;;;;;;;;;;;;5013293;28;19924;-68
2021/12/27 15:36:06;;;;;;;;;;;;;;;;;;5015721;28;20042;-67
2021/12/27 15:38:31;;;;;;;;;;;;;;;;;;5013615;28;20020;-67
2021/12/27 15:40:56;;;;;;;;;;;;;;;;;;5015831;28;20378;-66
2021/12/27 15:43:22;;;;;;;;;;;;;;;;;;5015554;28;20287;-67
2021/12/27 15:45:48;;;;;;;;;;;;;;;;;;5009294;28;19963;-66
2021/12/27 15:48:13;;;;;;;;;;;;;;;;;;5019145;28;19929;-67
2021/12/27 15:50:38;;;;;;;;;;;;;;;;;;5008361;28;19944;-66
2021/12/27 15:53:03;;;;;;;;;;;;;;;;;;5012144;28;20003;-66
2021/12/27 15:55:29;;;;;;;;;;;;;;;;;;4998596;28;19917;-67
2021/12/27 15:57:54;;;;;;;;;;;;;;;;;;5008863;28;20024;-66
2021/12/27 16:00:20;;;;;;;;;;;;;;;;;;5010247;28;19929;-66
2021/12/27 16:02:45;;;;;;;;;;;;;;;;;;5006528;28;20091;-67
2021/12/27 16:05:10;;;;;;;;;;;;;;;;;;5014167;28;19917;-68
2021/12/27 16:07:37;;;;;;;;;;;;;;;;;;5015048;28;20000;-68
2021/12/27 16:10:02;;;;;;;;;;;;;;;;;;5040631;28;19917;-70
2021/12/27 16:12:27;;;;;;;;;;;;;;;;;;5013029;28;19945;-66
2021/12/27 16:14:53;;;;;;;;;;;;;;;;;;5011099;28;20375;-69
2021/12/27 16:17:18;;;;;;;;;;;;;;;;;;5018747;28;20034;-68
2021/12/27 16:19:43;;;;;;;;;;;;;;;;;;5011573;28;19925;-68
2021/12/27 16:22:08;;;;;;;;;;;;;;;;;;5007078;28;19917;-67
2021/12/27 16:24:40;;;;;;;;;;;;;;;;;;5012201;28;19917;-66
2021/12/27 16:27:05;;;;;;;;;;;;;;;;;;5007406;28;19924;-67
2021/12/27 16:29:30;;;;;;;;;;;;;;;;;;5011484;28;19918;-69
2021/12/27 16:31:55;;;;;;;;;;;;;;;;;;5005581;28;19926;-70
2021/12/27 16:34:21;;;;;;;;;;;;;;;;;;5005457;28;21089;-66
2021/12/27 16:36:47;;;;;;;;;;;;;;;;;;5013037;28;19936;-67